sensor_id;sensor_type;location;lat;lon;timestamp;temperature;humidity
21340;DHT22;10828;47.064;15.422;2023-07-13T06:18:15;20.80;99.90
21340;DHT22;10828;47.064;15.422;2023-07-13T06:20:43;20.90;99.90
21340;DHT22;10828;47.064;15.422;2023-07-13T06:23:39;21.10;99.90
21340;DHT22;10828;47.064;15.422;2023-07-13T06:36:32;21.50;99.90
21340;DHT22;10828;47.064;15.422;2023-07-13T06:41:43;21.80;99.90
21340;DHT22;10828;47.064;15.422;2023-07-13T06:45:16;21.90;99.90
21340;DHT22;10828;47.064;15.422;2023-07-13T06:48:09;22.00;99.90
21340;DHT22;10828;47.064;15.422;2023-07-13T06:51:03;22.10;99.90
21340;DHT22;10828;47.064;15.422;2023-07-13T06:53:47;22.20;99.90
21340;DHT22;10828;47.064;15.422;2023-07-13T06:57:00;22.30;99.90
21340;DHT22;10828;47.064;15.422;2023-07-13T07:00:05;22.30;99.90
21340;DHT22;10828;47.064;15.422;2023-07-13T07:02:39;22.50;99.90
21340;DHT22;10828;47.064;15.422;2023-07-13T07:05:05;22.50;99.90
21340;DHT22;10828;47.064;15.422;2023-07-13T07:07:32;22.60;99.90
21340;DHT22;10828;47.064;15.422;2023-07-13T07:09:58;22.60;99.90
21340;DHT22;10828;47.064;15.422;2023-07-13T07:13:04;22.70;99.90
21340;DHT22;10828;47.064;15.422;2023-07-13T07:15:39;22.80;99.90
21340;DHT22;10828;47.064;15.422;2023-07-13T07:18:07;22.90;99.90
21340;DHT22;10828;47.064;15.422;2023-07-13T07:20:34;23.00;99.90
21340;DHT22;10828;47.064;15.422;2023-07-13T07:23:01;23.10;99.90
21340;DHT22;10828;47.064;15.422;2023-07-13T07:25:26;23.20;99.90
21340;DHT22;10828;47.064;15.422;2023-07-13T07:27:52;23.30;99.90
21340;DHT22;10828;47.064;15.422;2023-07-13T07:30:18;23.40;99.90
21340;DHT22;10828;47.064;15.422;2023-07-13T07:32:43;23.40;99.90
21340;DHT22;10828;47.064;15.422;2023-07-13T07:35:09;23.50;99.90
21340;DHT22;10828;47.064;15.422;2023-07-13T07:37:34;23.60;99.90
21340;DHT22;10828;47.064;15.422;2023-07-13T07:40:00;23.60;99.90
21340;DHT22;10828;47.064;15.422;2023-07-13T07:42:26;23.70;99.90
21340;DHT22;10828;47.064;15.422;2023-07-13T07:44:51;23.70;99.90
21340;DHT22;10828;47.064;15.422;2023-07-13T07:47:17;23.80;99.90
21340;DHT22;10828;47.064;15.422;2023-07-13T07:49:43;24.00;99.90
21340;DHT22;10828;47.064;15.422;2023-07-13T07:52:09;24.00;99.90
21340;DHT22;10828;47.064;15.422;2023-07-13T07:54:36;24.10;99.90
21340;DHT22;10828;47.064;15.422;2023-07-13T07:57:06;24.10;99.90
21340;DHT22;10828;47.064;15.422;2023-07-13T07:59:37;24.20;99.90
21340;DHT22;10828;47.064;15.422;2023-07-13T08:02:04;24.30;99.90
21340;DHT22;10828;47.064;15.422;2023-07-13T08:04:32;24.40;99.90
21340;DHT22;10828;47.064;15.422;2023-07-13T08:06:58;24.40;99.90
21340;DHT22;10828;47.064;15.422;2023-07-13T08:09:24;24.40;99.90
21340;DHT22;10828;47.064;15.422;2023-07-13T08:11:49;24.50;99.90
21340;DHT22;10828;47.064;15.422;2023-07-13T08:14:17;24.50;99.90
21340;DHT22;10828;47.064;15.422;2023-07-13T08:16:45;24.60;99.90
21340;DHT22;10828;47.064;15.422;2023-07-13T08:19:11;24.60;99.90
21340;DHT22;10828;47.064;15.422;2023-07-13T08:21:40;24.70;99.90
21340;DHT22;10828;47.064;15.422;2023-07-13T08:24:08;24.80;99.90
21340;DHT22;10828;47.064;15.422;2023-07-13T08:26:34;24.90;99.90
21340;DHT22;10828;47.064;15.422;2023-07-13T08:29:00;24.90;99.90
21340;DHT22;10828;47.064;15.422;2023-07-13T08:31:26;24.90;99.90
21340;DHT22;10828;47.064;15.422;2023-07-13T08:33:52;24.90;99.90
21340;DHT22;10828;47.064;15.422;2023-07-13T08:36:17;25.10;99.90
21340;DHT22;10828;47.064;15.422;2023-07-13T08:38:44;25.20;99.90
21340;DHT22;10828;47.064;15.422;2023-07-13T08:41:15;25.30;99.90
21340;DHT22;10828;47.064;15.422;2023-07-13T08:43:43;25.40;99.90
21340;DHT22;10828;47.064;15.422;2023-07-13T08:46:33;25.40;99.90
21340;DHT22;10828;47.064;15.422;2023-07-13T08:49:27;25.60;99.90
21340;DHT22;10828;47.064;15.422;2023-07-13T08:54:38;25.70;99.90
21340;DHT22;10828;47.064;15.422;2023-07-13T08:57:18;25.80;99.90
21340;DHT22;10828;47.064;15.422;2023-07-13T08:59:50;26.00;99.90
21340;DHT22;10828;47.064;15.422;2023-07-13T09:02:42;26.10;99.90
21340;DHT22;10828;47.064;15.422;2023-07-13T09:10:46;26.20;99.90
21340;DHT22;10828;47.064;15.422;2023-07-13T09:13:28;26.30;99.90
21340;DHT22;10828;47.064;15.422;2023-07-13T09:15:59;26.40;99.90
21340;DHT22;10828;47.064;15.422;2023-07-13T09:18:36;26.50;99.90
21340;DHT22;10828;47.064;15.422;2023-07-13T09:21:26;26.60;99.90
21340;DHT22;10828;47.064;15.422;2023-07-13T09:24:06;26.70;99.90
21340;DHT22;10828;47.064;15.422;2023-07-13T09:26:42;26.80;99.90
21340;DHT22;10828;47.064;15.422;2023-07-13T09:29:20;27.00;99.90
21340;DHT22;10828;47.064;15.422;2023-07-13T09:31:50;27.20;99.90
21340;DHT22;10828;47.064;15.422;2023-07-13T09:34:18;27.30;99.90
21340;DHT22;10828;47.064;15.422;2023-07-13T09:36:43;27.50;99.90
21340;DHT22;10828;47.064;15.422;2023-07-13T09:39:15;27.60;99.90
21340;DHT22;10828;47.064;15.422;2023-07-13T09:41:47;27.60;99.90
21340;DHT22;10828;47.064;15.422;2023-07-13T09:44:16;27.60;99.90
21340;DHT22;10828;47.064;15.422;2023-07-13T09:46:51;27.60;99.90
21340;DHT22;10828;47.064;15.422;2023-07-13T09:49:17;27.70;99.90
21340;DHT22;10828;47.064;15.422;2023-07-13T09:51:43;27.90;99.90
21340;DHT22;10828;47.064;15.422;2023-07-13T09:54:19;28.00;99.90
21340;DHT22;10828;47.064;15.422;2023-07-13T09:56:45;28.30;99.90
21340;DHT22;10828;47.064;15.422;2023-07-13T09:59:22;28.40;99.90
21340;DHT22;10828;47.064;15.422;2023-07-13T10:01:49;28.50;99.90
21340;DHT22;10828;47.064;15.422;2023-07-13T10:04:18;28.50;99.90
21340;DHT22;10828;47.064;15.422;2023-07-13T10:06:44;28.40;99.90
21340;DHT22;10828;47.064;15.422;2023-07-13T10:09:17;28.50;99.90
21340;DHT22;10828;47.064;15.422;2023-07-13T10:11:44;28.60;99.90
21340;DHT22;10828;47.064;15.422;2023-07-13T10:14:15;28.70;99.90
21340;DHT22;10828;47.064;15.422;2023-07-13T10:16:43;28.90;99.90
21340;DHT22;10828;47.064;15.422;2023-07-13T10:19:20;29.00;99.90
21340;DHT22;10828;47.064;15.422;2023-07-13T10:21:55;29.20;99.90
21340;DHT22;10828;47.064;15.422;2023-07-13T10:24:23;29.40;99.90
21340;DHT22;10828;47.064;15.422;2023-07-13T10:27:00;29.50;99.90
21340;DHT22;10828;47.064;15.422;2023-07-13T10:29:32;29.40;99.90
21340;DHT22;10828;47.064;15.422;2023-07-13T10:32:00;29.20;99.90
21340;DHT22;10828;47.064;15.422;2023-07-13T10:34:26;29.10;99.90
21340;DHT22;10828;47.064;15.422;2023-07-13T10:36:52;29.20;99.90
21340;DHT22;10828;47.064;15.422;2023-07-13T10:39:24;29.10;99.90
21340;DHT22;10828;47.064;15.422;2023-07-13T10:41:55;29.20;99.90
21340;DHT22;10828;47.064;15.422;2023-07-13T10:44:39;29.00;99.90
21340;DHT22;10828;47.064;15.422;2023-07-13T10:47:10;28.80;99.90
21340;DHT22;10828;47.064;15.422;2023-07-13T10:49:39;28.80;99.90
21340;DHT22;10828;47.064;15.422;2023-07-13T10:52:20;29.10;99.90
21340;DHT22;10828;47.064;15.422;2023-07-13T10:54:52;29.30;99.90
21340;DHT22;10828;47.064;15.422;2023-07-13T10:57:21;29.40;99.90
21340;DHT22;10828;47.064;15.422;2023-07-13T11:00:17;29.30;99.90
21340;DHT22;10828;47.064;15.422;2023-07-13T11:02:56;28.80;99.90
21340;DHT22;10828;47.064;15.422;2023-07-13T11:05:50;28.70;99.90
21340;DHT22;10828;47.064;15.422;2023-07-13T11:08:31;28.80;99.90
21340;DHT22;10828;47.064;15.422;2023-07-13T11:10:58;28.80;99.90
21340;DHT22;10828;47.064;15.422;2023-07-13T11:19:08;28.60;99.90
21340;DHT22;10828;47.064;15.422;2023-07-13T11:24:53;28.50;99.90
21340;DHT22;10828;47.064;15.422;2023-07-13T11:32:50;28.60;99.90
21340;DHT22;10828;47.064;15.422;2023-07-13T11:35:23;28.40;99.90
21340;DHT22;10828;47.064;15.422;2023-07-13T11:37:51;28.20;99.90
21340;DHT22;10828;47.064;15.422;2023-07-13T11:40:18;28.00;99.90
21340;DHT22;10828;47.064;15.422;2023-07-13T11:42:44;27.90;99.90
21340;DHT22;10828;47.064;15.422;2023-07-13T11:45:22;27.90;99.90
21340;DHT22;10828;47.064;15.422;2023-07-13T11:47:49;27.80;99.90
21340;DHT22;10828;47.064;15.422;2023-07-13T11:50:23;27.60;99.90
21340;DHT22;10828;47.064;15.422;2023-07-13T11:53:09;27.50;99.90
21340;DHT22;10828;47.064;15.422;2023-07-13T11:55:38;27.40;99.90
21340;DHT22;10828;47.064;15.422;2023-07-13T11:58:05;27.40;99.90
21340;DHT22;10828;47.064;15.422;2023-07-13T12:00:32;27.40;99.90
21340;DHT22;10828;47.064;15.422;2023-07-13T12:03:00;27.30;99.90
21340;DHT22;10828;47.064;15.422;2023-07-13T12:05:27;27.40;99.90
21340;DHT22;10828;47.064;15.422;2023-07-13T12:07:54;27.50;99.90
21340;DHT22;10828;47.064;15.422;2023-07-13T12:10:33;27.50;99.90
21340;DHT22;10828;47.064;15.422;2023-07-13T12:13:01;27.50;99.90
21340;DHT22;10828;47.064;15.422;2023-07-13T12:15:43;27.30;99.90
21340;DHT22;10828;47.064;15.422;2023-07-13T12:18:23;27.30;99.90
21340;DHT22;10828;47.064;15.422;2023-07-13T12:20:51;27.20;99.90
21340;DHT22;10828;47.064;15.422;2023-07-13T12:23:25;27.20;99.90
21340;DHT22;10828;47.064;15.422;2023-07-13T12:25:53;27.20;99.90
21340;DHT22;10828;47.064;15.422;2023-07-13T12:28:21;27.20;99.90
21340;DHT22;10828;47.064;15.422;2023-07-13T12:30:49;26.90;99.90
21340;DHT22;10828;47.064;15.422;2023-07-13T12:33:18;26.70;99.90
21340;DHT22;10828;47.064;15.422;2023-07-13T12:35:47;26.50;99.90
21340;DHT22;10828;47.064;15.422;2023-07-13T12:38:15;26.30;99.90
21340;DHT22;10828;47.064;15.422;2023-07-13T12:40:42;26.20;99.90
21340;DHT22;10828;47.064;15.422;2023-07-13T12:43:13;26.20;99.90
21340;DHT22;10828;47.064;15.422;2023-07-13T12:46:18;26.10;99.90
21340;DHT22;10828;47.064;15.422;2023-07-13T12:48:48;25.90;99.90
21340;DHT22;10828;47.064;15.422;2023-07-13T12:51:14;25.60;99.90
21340;DHT22;10828;47.064;15.422;2023-07-13T12:53:49;25.40;99.90
21340;DHT22;10828;47.064;15.422;2023-07-13T12:56:21;25.20;99.90
21340;DHT22;10828;47.064;15.422;2023-07-13T12:58:49;24.90;99.90
21340;DHT22;10828;47.064;15.422;2023-07-13T13:01:22;24.70;99.90
21340;DHT22;10828;47.064;15.422;2023-07-13T13:03:53;24.60;99.90
21340;DHT22;10828;47.064;15.422;2023-07-13T13:06:27;24.60;99.90
21340;DHT22;10828;47.064;15.422;2023-07-13T13:08:57;24.60;99.90
21340;DHT22;10828;47.064;15.422;2023-07-13T13:11:24;24.60;99.90
21340;DHT22;10828;47.064;15.422;2023-07-13T13:13:52;24.60;99.90
21340;DHT22;10828;47.064;15.422;2023-07-13T13:16:29;24.60;99.90
21340;DHT22;10828;47.064;15.422;2023-07-13T13:19:13;24.50;99.90
21340;DHT22;10828;47.064;15.422;2023-07-13T13:21:42;24.40;99.90
21340;DHT22;10828;47.064;15.422;2023-07-13T13:24:14;24.40;99.90
21340;DHT22;10828;47.064;15.422;2023-07-13T13:26:41;24.40;99.90
21340;DHT22;10828;47.064;15.422;2023-07-13T13:31:42;24.10;99.90
21340;DHT22;10828;47.064;15.422;2023-07-13T13:34:24;24.00;99.90
21340;DHT22;10828;47.064;15.422;2023-07-13T17:23:26;20.30;99.90
21340;DHT22;10828;47.064;15.422;2023-07-13T21:09:44;19.00;99.90
21340;DHT22;10828;47.064;15.422;2023-07-13T21:12:12;19.00;99.90
21340;DHT22;10828;47.064;15.422;2023-07-13T21:14:38;19.00;99.90
21340;DHT22;10828;47.064;15.422;2023-07-13T21:17:08;19.10;99.90
21340;DHT22;10828;47.064;15.422;2023-07-13T21:20:15;19.00;99.90
21340;DHT22;10828;47.064;15.422;2023-07-13T21:26:02;18.90;99.90
21340;DHT22;10828;47.064;15.422;2023-07-13T21:28:33;18.90;99.90
21340;DHT22;10828;47.064;15.422;2023-07-13T21:31:07;18.90;99.90
21340;DHT22;10828;47.064;15.422;2023-07-13T21:33:35;18.80;99.90
21340;DHT22;10828;47.064;15.422;2023-07-13T21:36:04;18.80;99.90
21340;DHT22;10828;47.064;15.422;2023-07-13T21:38:37;18.80;99.90
21340;DHT22;10828;47.064;15.422;2023-07-13T21:41:16;18.70;99.90
21340;DHT22;10828;47.064;15.422;2023-07-13T21:43:48;18.70;99.90
21340;DHT22;10828;47.064;15.422;2023-07-13T21:46:14;18.70;99.90
21340;DHT22;10828;47.064;15.422;2023-07-13T21:48:40;18.80;99.90
21340;DHT22;10828;47.064;15.422;2023-07-13T21:51:18;18.80;99.90
21340;DHT22;10828;47.064;15.422;2023-07-13T21:53:47;18.80;99.90
21340;DHT22;10828;47.064;15.422;2023-07-13T21:56:29;18.70;99.90
21340;DHT22;10828;47.064;15.422;2023-07-13T21:58:57;18.80;99.90
21340;DHT22;10828;47.064;15.422;2023-07-13T22:01:35;18.90;99.90
21340;DHT22;10828;47.064;15.422;2023-07-13T22:04:02;18.80;99.90
21340;DHT22;10828;47.064;15.422;2023-07-13T22:06:30;18.70;99.90
21340;DHT22;10828;47.064;15.422;2023-07-13T22:08:56;18.70;99.90
21340;DHT22;10828;47.064;15.422;2023-07-13T22:11:25;18.70;99.90
21340;DHT22;10828;47.064;15.422;2023-07-13T22:13:52;18.80;99.90
21340;DHT22;10828;47.064;15.422;2023-07-13T22:16:21;18.90;99.90
21340;DHT22;10828;47.064;15.422;2023-07-13T22:18:50;18.80;99.90
21340;DHT22;10828;47.064;15.422;2023-07-13T22:21:22;18.80;99.90
21340;DHT22;10828;47.064;15.422;2023-07-13T22:23:50;19.00;99.90
21340;DHT22;10828;47.064;15.422;2023-07-13T22:28:51;18.80;99.90
21340;DHT22;10828;47.064;15.422;2023-07-13T22:31:17;18.80;99.90
21340;DHT22;10828;47.064;15.422;2023-07-13T22:33:43;18.60;99.90
21340;DHT22;10828;47.064;15.422;2023-07-13T22:36:19;18.60;99.90
21340;DHT22;10828;47.064;15.422;2023-07-13T22:38:46;18.60;99.90
21340;DHT22;10828;47.064;15.422;2023-07-13T22:41:20;18.70;99.90
21340;DHT22;10828;47.064;15.422;2023-07-13T22:43:47;18.60;99.90
21340;DHT22;10828;47.064;15.422;2023-07-13T22:46:18;18.60;99.90
21340;DHT22;10828;47.064;15.422;2023-07-13T22:48:57;18.70;99.90
21340;DHT22;10828;47.064;15.422;2023-07-13T22:51:25;18.70;99.90
21340;DHT22;10828;47.064;15.422;2023-07-13T22:53:53;18.80;99.90
21340;DHT22;10828;47.064;15.422;2023-07-13T22:56:24;18.80;99.90
21340;DHT22;10828;47.064;15.422;2023-07-13T22:58:51;18.80;99.90
21340;DHT22;10828;47.064;15.422;2023-07-13T23:01:23;19.00;99.90
21340;DHT22;10828;47.064;15.422;2023-07-13T23:03:54;19.00;99.90
21340;DHT22;10828;47.064;15.422;2023-07-13T23:06:34;19.10;99.90
21340;DHT22;10828;47.064;15.422;2023-07-13T23:09:03;19.20;99.90
21340;DHT22;10828;47.064;15.422;2023-07-13T23:11:29;19.10;99.90
21340;DHT22;10828;47.064;15.422;2023-07-13T23:13:57;19.10;99.90
21340;DHT22;10828;47.064;15.422;2023-07-13T23:16:27;19.10;99.90
21340;DHT22;10828;47.064;15.422;2023-07-13T23:19:01;19.10;99.90
21340;DHT22;10828;47.064;15.422;2023-07-13T23:21:28;19.00;99.90
21340;DHT22;10828;47.064;15.422;2023-07-13T23:24:02;19.00;99.90
21340;DHT22;10828;47.064;15.422;2023-07-13T23:26:28;18.90;99.90
21340;DHT22;10828;47.064;15.422;2023-07-13T23:28:54;18.90;99.90
21340;DHT22;10828;47.064;15.422;2023-07-13T23:31:29;18.80;99.90
21340;DHT22;10828;47.064;15.422;2023-07-13T23:33:59;18.90;99.90
21340;DHT22;10828;47.064;15.422;2023-07-13T23:36:39;18.80;99.90
21340;DHT22;10828;47.064;15.422;2023-07-13T23:39:11;18.70;99.90
21340;DHT22;10828;47.064;15.422;2023-07-13T23:41:41;18.70;99.90
21340;DHT22;10828;47.064;15.422;2023-07-13T23:44:15;18.60;99.90
21340;DHT22;10828;47.064;15.422;2023-07-13T23:46:50;18.50;99.90
21340;DHT22;10828;47.064;15.422;2023-07-13T23:49:24;18.40;99.90
21340;DHT22;10828;47.064;15.422;2023-07-13T23:51:57;18.30;99.90
21340;DHT22;10828;47.064;15.422;2023-07-13T23:54:27;18.30;99.90
21340;DHT22;10828;47.064;15.422;2023-07-13T23:56:56;18.30;99.90
21340;DHT22;10828;47.064;15.422;2023-07-13T23:59:22;18.40;99.90
